createdAt,value
2018-10-18T15:23:18.962Z,17.20
2018-10-18T15:24:20.605Z,20.30
2018-10-18T15:25:18.907Z,21.20
2018-10-18T15:26:18.950Z,20.70
2018-10-18T15:27:18.751Z,22.00
2018-10-18T15:28:18.566Z,21.60
2018-10-18T15:29:18.595Z,20.80
2018-10-18T15:30:18.374Z,21.30
2018-10-18T15:31:18.269Z,19.90
2018-10-18T15:32:18.234Z,20.70
2018-10-18T15:33:18.664Z,19.90
2018-10-18T15:34:17.966Z,20.40
2018-10-18T15:35:18.001Z,19.60
2018-10-18T15:36:17.754Z,19.50
2018-10-18T15:37:17.653Z,19.20
2018-10-18T15:38:17.826Z,20.40
2018-10-18T15:39:17.645Z,19.10
2018-10-18T15:40:17.358Z,19.70
2018-10-18T15:41:17.363Z,19.90
2018-10-18T15:42:17.129Z,19.10
2018-10-18T15:43:17.608Z,18.50
2018-10-18T15:44:17.024Z,19.30
2018-10-18T15:45:16.888Z,19.20
2018-10-18T15:46:16.719Z,18.80
2018-10-18T15:47:16.728Z,19.10
2018-10-18T15:48:16.509Z,18.60
2018-10-18T15:49:16.410Z,18.20
2018-10-18T15:50:16.392Z,18.70
2018-10-18T15:51:16.299Z,18.20
2018-10-18T15:52:16.197Z,18.40
2018-10-18T15:53:16.340Z,16.90
2018-10-18T15:54:16.029Z,17.60
2018-10-18T15:55:15.768Z,17.40
2018-10-18T15:56:15.666Z,17.10
2018-10-18T15:57:15.584Z,17.60
2018-10-18T15:58:15.453Z,17.10
2018-10-18T15:59:15.541Z,17.20
2018-10-18T16:00:15.420Z,17.70
2018-10-18T16:01:15.141Z,17.70
2018-10-18T16:02:15.038Z,16.50
2018-10-18T16:03:14.946Z,17.60
2018-10-18T16:04:14.850Z,17.10
2018-10-18T16:05:15.043Z,16.00
2018-10-18T16:06:14.696Z,17.40
2018-10-18T16:07:14.520Z,17.10
2018-10-18T16:08:14.420Z,16.30
2018-10-18T16:09:14.317Z,16.50
2018-10-18T16:10:14.224Z,16.90
2018-10-18T16:11:15.140Z,16.80
2018-10-18T16:12:14.010Z,16.20
2018-10-18T16:13:13.912Z,16.00
2018-10-18T16:14:13.938Z,16.70
2018-10-18T16:15:13.713Z,15.80
2018-10-18T16:16:13.622Z,15.70
2018-10-18T16:17:13.615Z,15.60
2018-10-18T16:18:13.410Z,16.10
2018-10-18T16:19:13.317Z,15.80
2018-10-18T16:20:13.315Z,16.00
2018-10-18T16:21:13.118Z,16.10
2018-10-18T16:22:13.098Z,16.20
2018-10-18T16:23:12.949Z,15.90
2018-10-18T16:24:12.895Z,16.60
2018-10-18T16:25:12.733Z,15.50
2018-10-18T16:26:13.804Z,15.30
2018-10-18T16:27:13.095Z,15.60
2018-10-18T16:28:12.419Z,14.90
2018-10-18T16:29:12.432Z,15.50
2018-10-18T16:30:12.232Z,15.30
2018-10-18T16:31:12.106Z,15.40
2018-10-18T16:32:12.771Z,15.20
2018-10-18T16:33:11.884Z,15.70
2018-10-18T16:34:11.789Z,15.90
2018-10-18T16:35:11.716Z,15.50
2018-10-18T16:36:12.106Z,15.10
2018-10-18T16:37:11.441Z,15.30
2018-10-18T16:38:11.379Z,14.60
2018-10-18T16:39:11.213Z,14.80
2018-10-18T16:40:11.106Z,15.40
2018-10-18T16:41:11.174Z,15.60
2018-10-18T16:42:10.870Z,15.30
2018-10-18T16:43:10.763Z,14.50
2018-10-18T16:44:10.725Z,14.70
2018-10-18T16:45:10.520Z,15.50
2018-10-18T16:46:10.537Z,16.20
2018-10-18T16:47:10.286Z,15.60
2018-10-18T16:48:10.236Z,16.10
2018-10-18T16:49:10.050Z,15.30
2018-10-18T16:50:11.381Z,15.30
2018-10-18T16:51:11.852Z,16.10
2018-10-18T16:52:09.892Z,15.90
2018-10-18T16:53:09.605Z,16.60
2018-10-18T16:54:09.731Z,15.50
2018-10-18T16:55:09.317Z,16.00
2018-10-18T16:56:09.223Z,15.70
